createdAt,value
2018-11-10T00:05:23.612Z,36
2018-11-10T00:15:27.086Z,36
2018-11-10T00:25:30.545Z,35
2018-11-10T00:35:33.980Z,36
2018-11-10T00:45:37.436Z,35
2018-11-10T00:55:40.903Z,36
2018-11-10T01:05:44.344Z,37
2018-11-10T01:15:47.814Z,36
2018-11-10T01:25:51.277Z,36
2018-11-10T01:35:54.729Z,35
2018-11-10T01:45:58.179Z,36
2018-11-10T01:56:01.609Z,36
2018-11-10T02:06:05.052Z,36
2018-11-10T02:16:08.498Z,36
2018-11-10T02:26:11.966Z,37
2018-11-10T02:36:15.439Z,37
2018-11-10T02:46:18.901Z,38
2018-11-10T02:56:22.362Z,36
2018-11-10T03:06:25.816Z,36
2018-11-10T03:16:29.685Z,36
2018-11-10T03:26:33.402Z,37
2018-11-10T03:36:36.860Z,37
2018-11-10T03:46:40.320Z,37
2018-11-10T03:56:43.776Z,36
2018-11-10T04:06:47.228Z,36
2018-11-10T04:16:50.683Z,36
2018-11-10T04:26:54.130Z,37
2018-11-10T04:36:57.571Z,36
2018-11-10T04:47:00.988Z,36
2018-11-10T04:57:04.426Z,36
2018-11-10T05:07:07.880Z,36
2018-11-10T05:17:11.324Z,36
2018-11-10T05:27:14.783Z,36
2018-11-10T05:37:18.256Z,36
2018-11-10T05:47:22.711Z,35
2018-11-10T05:57:26.151Z,37
2018-11-10T06:07:29.593Z,37
2018-11-10T06:17:33.056Z,37
2018-11-10T06:27:36.612Z,36
2018-11-10T06:37:40.083Z,38
2018-11-10T06:47:43.556Z,37
2018-11-10T06:57:47.000Z,37
2018-11-10T07:07:50.452Z,37
2018-11-10T07:17:54.090Z,37
2018-11-10T07:27:57.671Z,38
2018-11-10T07:38:01.152Z,37
2018-11-10T07:48:04.635Z,37
2018-11-10T07:58:08.114Z,37
2018-11-10T08:08:11.568Z,37
2018-11-10T08:18:15.035Z,38
2018-11-10T08:28:18.487Z,37
2018-11-10T08:38:21.909Z,37
2018-11-10T08:48:25.351Z,37
2018-11-10T08:58:28.775Z,37
2018-11-10T09:08:32.238Z,37
2018-11-10T09:18:35.691Z,37
2018-11-10T09:28:39.152Z,39
2018-11-10T09:38:42.592Z,37
2018-11-10T09:48:46.044Z,37
2018-11-10T09:58:49.459Z,38
2018-11-10T10:08:53.372Z,37
2018-11-10T10:18:57.083Z,37
2018-11-10T10:29:01.009Z,37
2018-11-10T10:39:05.706Z,37
2018-11-10T10:49:09.606Z,37
2018-11-10T10:59:13.337Z,37
2018-11-10T11:09:16.785Z,37
2018-11-10T11:19:20.251Z,36
2018-11-10T11:29:24.491Z,37
2018-11-10T11:39:28.254Z,37
2018-11-10T11:49:31.701Z,37
2018-11-10T11:59:35.163Z,37
2018-11-10T12:09:38.598Z,37
2018-11-10T12:19:42.066Z,37
2018-11-10T12:29:45.533Z,38
2018-11-10T12:39:48.975Z,38
2018-11-10T12:49:52.430Z,38
2018-11-10T12:59:55.888Z,37
2018-11-10T13:09:59.334Z,38
2018-11-10T13:20:02.775Z,36
2018-11-10T13:30:06.222Z,37
2018-11-10T13:40:09.672Z,37
2018-11-10T13:50:13.174Z,37
2018-11-10T14:00:16.623Z,37
2018-11-10T14:10:20.202Z,37
2018-11-10T14:20:23.968Z,37
2018-11-10T14:30:27.588Z,37
2018-11-10T14:40:31.033Z,37
2018-11-10T14:50:34.485Z,37
2018-11-10T15:00:37.923Z,37
2018-11-10T15:10:41.396Z,37
2018-11-10T15:20:44.811Z,37
2018-11-10T15:30:48.253Z,37
2018-11-10T15:40:51.706Z,38
2018-11-10T15:50:55.160Z,38
2018-11-10T16:00:58.676Z,38
2018-11-10T16:11:02.164Z,39
2018-11-10T16:21:05.977Z,39
2018-11-10T16:31:09.598Z,38
2018-11-10T16:41:13.033Z,39
2018-11-10T16:51:16.494Z,40
2018-11-10T17:01:19.970Z,42
2018-11-10T17:11:23.434Z,42
2018-11-10T17:21:32.681Z,42
2018-11-10T17:31:36.374Z,38
2018-11-10T17:41:39.832Z,39
2018-11-10T17:51:43.308Z,40
2018-11-10T18:01:47.456Z,43
2018-11-10T18:11:51.341Z,41
2018-11-10T18:21:54.854Z,40
2018-11-10T18:31:58.282Z,38
2018-11-10T18:42:01.724Z,39
2018-11-10T18:52:05.366Z,38
2018-11-10T19:02:08.892Z,38
2018-11-10T19:12:12.327Z,39
2018-11-10T19:22:15.778Z,40
2018-11-10T19:32:19.633Z,40
2018-11-10T19:42:23.456Z,41
2018-11-10T19:52:26.900Z,41
2018-11-10T20:02:30.351Z,44
2018-11-10T20:12:33.810Z,43
2018-11-10T20:22:37.271Z,41
2018-11-10T20:32:40.872Z,40
2018-11-10T20:42:44.461Z,39
2018-11-10T20:52:47.931Z,38
2018-11-10T21:02:51.394Z,38
2018-11-10T21:12:55.065Z,39
2018-11-10T21:22:58.715Z,39
2018-11-10T21:33:02.190Z,39
2018-11-10T21:43:05.663Z,39
2018-11-10T21:53:09.131Z,39
2018-11-10T22:03:12.607Z,39
2018-11-10T22:13:16.033Z,38
2018-11-10T22:23:19.480Z,38
2018-11-10T22:33:22.908Z,39
2018-11-10T22:43:26.366Z,39
2018-11-10T22:53:29.827Z,40
2018-11-10T23:03:33.513Z,38
2018-11-10T23:13:37.087Z,39
2018-11-10T23:23:40.946Z,38
2018-11-10T23:33:44.627Z,38
2018-11-10T23:43:48.088Z,37
2018-11-10T23:53:51.707Z,38
